Tropical Cyclones
[Index]
Main Index Home Page Stock Weather Photos Extreme Storms Discussion Storm News and Storm Chasing Reports Tropical Cyclones / Hurricanes / Typhoons Weather Data and Links Wild Fires / Bushfires Weather Observation Techniques Weather Picture Catalogue Tornado Pictures and Reports Stock Video Footage and DVDs for sale
Season 2000-2001 Tropical Cyclone ABIGAIL Track Map
Season 2000-2001 Summaries (Operational Data): [AU] [SIO] [SPAC] [SH]
<<- Previous TC | 2000-2001 Season | Next TC ->>

click for intensity scale information  Lat/long Grid: Show Hide

 Date Labels: Show Hide

Operational Tropical Cyclone Data : JTWC Advisories

Name: ABIGAIL
Number: 0112

22 Feb 2001 08:00 UTC to 27 Feb 2001 06:00 UTC

    date/time    lat    long     hPa   cat  kts
2001-02-22 08   12.0   157.0    1001         30          
2001-02-22 13   12.0   155.5    1001         30          
2001-02-22 18   14.0   154.0     999         30          
2001-02-23 00   15.5   154.5     998         30          
2001-02-23 06   16.5   151.5     996         30          
2001-02-23 12   17.5   150.0     996         30          
2001-02-23 18   17.6   148.4     993         30          
2001-02-24 00   16.7   146.2     992    1    40          
2001-02-24 03   16.5   145.3     995         30          
2001-02-24 13   16.7   143.5     997         25          
2001-02-24 19   16.3   143.2     997         25          
2001-02-25 00   16.5   141.3     997         30          
2001-02-25 06   16.5   140.7     994         30          
2001-02-25 12   15.9   140.2     994         30          
2001-02-25 18   15.8   140.0     992    1    35          
2001-02-26 00   15.9   139.8     985    2    50          
2001-02-26 06   16.3   139.5     975    2    60          
2001-02-26 12   16.7   138.6     970    3    65          
2001-02-26 18   16.6   137.5     985    1    45          
2001-02-27 00   16.9   137.0     990    1    40          
2001-02-27 04   17.0   136.7     992         30          
2001-02-27 06   17.1   136.2                             
Winds are 10-min average.

Tropical cyclone tracks developed by Michael Bath using operational warnings and advisories and Google Maps.


[Australian Severe Weather index] [Copyright Notice] [Email Contacts] [Search This Site] [Privacy Policy]
Document: tropical_cyclone_abigail.htm Updated: 28 May 2013